Time;durP1;ratioP1;P1;durP2;ratioP2;P2;SDS_P1;SDS_P2;PMS_P1;PMS_P2;Temp;Humidity;BMP_temperature;BMP_pressure;BME280_temperature;BME280_humidity;BME280_pressure;Samples;Min_cycle;Max_cycle;Signal;HPM_P1;HPM_P2
2024/01/30 00:02:14;;;;;;;8.50;5.30;;;5.00;99.90;;;;;;4987007;28;20090;-81
2024/01/30 00:04:40;;;;;;;10.70;5.95;;;4.90;99.90;;;;;;4987959;28;20486;-83
2024/01/30 00:07:06;;;;;;;12.18;6.53;;;4.90;99.90;;;;;;4998989;28;20050;-83
2024/01/30 00:09:31;;;;;;;7.03;5.70;;;5.00;99.90;;;;;;4990875;28;20075;-82
2024/01/30 00:11:57;;;;;;;11.65;5.75;;;5.00;99.90;;;;;;4986868;28;20185;-83
2024/01/30 00:14:23;;;;;;;9.82;5.90;;;5.00;99.90;;;;;;4987554;28;20405;-81
2024/01/30 00:16:48;;;;;;;7.60;5.80;;;5.00;99.90;;;;;;4984761;28;20047;-82
2024/01/30 00:19:14;;;;;;;5.88;5.10;;;4.90;99.90;;;;;;4974740;28;20043;-82
2024/01/30 00:21:39;;;;;;;7.22;5.22;;;4.90;99.90;;;;;;5000684;28;20074;-83
2024/01/30 00:24:05;;;;;;;9.95;7.75;;;4.90;99.90;;;;;;4983855;28;20068;-82
2024/01/30 00:26:31;;;;;;;9.18;5.63;;;4.90;99.90;;;;;;4979200;28;20047;-82
2024/01/30 00:28:56;;;;;;;14.02;6.28;;;4.90;99.90;;;;;;5017033;28;20046;-83
2024/01/30 00:31:22;;;;;;;9.60;6.05;;;4.80;99.90;;;;;;4988928;28;20039;-82
2024/01/30 00:33:47;;;;;;;9.95;5.97;;;4.80;99.90;;;;;;5016254;28;20400;-83
2024/01/30 00:36:13;;;;;;;7.55;6.78;;;4.80;99.90;;;;;;5001764;28;20078;-82
2024/01/30 00:38:40;;;;;;;9.95;7.82;;;4.80;99.90;;;;;;5008395;28;20046;-83
2024/01/30 00:41:07;;;;;;;7.35;6.00;;;4.80;99.90;;;;;;4988179;28;20053;-81
2024/01/30 00:43:33;;;;;;;10.20;6.00;;;4.80;99.90;;;;;;5018183;28;20046;-83
2024/01/30 00:45:59;;;;;;;11.25;8.93;;;4.80;99.90;;;;;;4987096;28;20555;-82
2024/01/30 00:48:25;;;;;;;12.07;6.40;;;4.80;99.90;;;;;;4983443;28;20498;-83
2024/01/30 00:50:50;;;;;;;12.38;6.65;;;4.80;99.90;;;;;;4969411;28;20031;-81
2024/01/30 00:53:16;;;;;;;10.70;5.85;;;4.80;99.90;;;;;;4981900;28;20109;-83
2024/01/30 00:55:41;;;;;;;9.20;7.45;;;4.80;99.90;;;;;;4986940;28;20053;-83
2024/01/30 00:58:07;;;;;;;6.28;4.93;;;4.80;99.90;;;;;;4982690;28;20086;-83
2024/01/30 01:00:33;;;;;;;7.15;6.55;;;4.70;99.90;;;;;;4977152;28;20045;-81
2024/01/30 01:02:59;;;;;;;17.77;7.05;;;4.70;99.90;;;;;;4986885;28;20042;-83
2024/01/30 01:05:25;;;;;;;9.55;5.93;;;4.60;99.90;;;;;;4986749;28;20054;-83
2024/01/30 01:07:51;;;;;;;8.32;5.00;;;4.70;99.90;;;;;;4984126;28;20031;-83
2024/01/30 01:10:17;;;;;;;8.77;6.20;;;4.60;99.90;;;;;;4979255;28;20447;-80
2024/01/30 01:12:43;;;;;;;8.95;7.07;;;4.70;99.90;;;;;;4999011;28;20829;-83
2024/01/30 01:15:09;;;;;;;5.65;4.90;;;4.60;99.90;;;;;;4967102;28;20070;-83
2024/01/30 01:17:36;;;;;;;14.30;7.97;;;4.70;99.90;;;;;;4998347;28;20069;-83
2024/01/30 01:20:03;;;;;;;8.32;6.50;;;4.60;99.90;;;;;;4968535;28;20039;-83
2024/01/30 01:22:29;;;;;;;7.43;6.05;;;4.60;99.90;;;;;;4966705;28;20049;-82
2024/01/30 01:24:55;;;;;;;10.93;5.60;;;4.60;99.90;;;;;;4950737;28;20141;-83
2024/01/30 01:27:21;;;;;;;11.52;6.07;;;4.60;99.90;;;;;;4967507;28;20089;-81
2024/01/30 01:29:46;;;;;;;9.15;6.03;;;4.60;99.90;;;;;;4950717;28;20070;-83
2024/01/30 01:32:12;;;;;;;7.53;6.13;;;4.70;99.90;;;;;;4998635;28;20680;-82
2024/01/30 01:34:38;;;;;;;6.90;5.65;;;4.70;99.90;;;;;;4967546;28;20070;-83
2024/01/30 01:37:04;;;;;;;7.75;5.05;;;4.70;99.90;;;;;;4968103;28;20042;-83
2024/01/30 01:39:29;;;;;;;8.40;5.28;;;4.70;99.90;;;;;;4965851;28;20047;-83
2024/01/30 01:41:55;;;;;;;11.88;6.88;;;4.70;99.90;;;;;;4983335;28;20042;-83
2024/01/30 01:44:20;;;;;;;11.68;5.82;;;4.70;99.90;;;;;;4968316;28;20062;-82
2024/01/30 01:46:47;;;;;;;8.52;5.68;;;4.70;99.90;;;;;;4966845;28;20413;-83
2024/01/30 01:49:14;;;;;;;8.38;6.45;;;4.70;99.90;;;;;;4966255;28;20073;-83
2024/01/30 01:51:41;;;;;;;10.88;5.28;;;4.70;99.90;;;;;;4998946;28;20082;-83
2024/01/30 01:54:07;;;;;;;9.75;6.65;;;4.80;99.90;;;;;;4967351;28;20042;-84
2024/01/30 01:56:33;;;;;;;11.93;6.93;;;4.80;99.90;;;;;;4950104;28;20093;-83
2024/01/30 01:59:08;;;;;;;9.70;6.70;;;4.80;99.90;;;;;;4982455;28;20066;-83
2024/01/30 02:01:36;;;;;;;8.80;7.05;;;4.80;99.90;;;;;;4965158;28;20478;-83
2024/01/30 02:04:02;;;;;;;13.30;7.78;;;4.80;99.90;;;;;;4966106;28;20557;-82
2024/01/30 02:06:28;;;;;;;10.85;7.28;;;4.90;99.90;;;;;;4966027;28;20129;-84
2024/01/30 02:08:54;;;;;;;13.15;6.53;;;4.90;99.90;;;;;;4965934;28;20481;-83
2024/01/30 02:11:20;;;;;;;16.05;7.20;;;4.90;99.90;;;;;;4967846;28;20042;-83
2024/01/30 02:13:46;;;;;;;6.82;5.72;;;4.90;99.90;;;;;;5060724;22;20455;-82
2024/01/30 02:16:11;;;;;;;12.13;6.45;;;4.90;99.90;;;;;;4956193;28;20501;-84
2024/01/30 02:18:41;;;;;;;13.60;6.68;;;5.00;99.90;;;;;;4968467;28;20045;-83
2024/01/30 02:21:07;;;;;;;11.07;7.28;;;5.10;99.90;;;;;;4953760;28;20042;-79
2024/01/30 02:23:34;;;;;;;10.25;7.43;;;5.10;99.90;;;;;;4974421;28;20143;-82
2024/01/30 02:26:00;;;;;;;9.25;5.55;;;5.10;99.90;;;;;;4954321;28;20055;-83
2024/01/30 02:28:27;;;;;;;8.98;6.18;;;5.10;99.90;;;;;;4985205;28;20054;-82
2024/01/30 02:30:52;;;;;;;13.35;6.55;;;5.20;99.90;;;;;;4981765;28;20042;-80
2024/01/30 02:33:18;;;;;;;13.45;7.22;;;5.20;99.90;;;;;;4967303;28;20034;-83
2024/01/30 02:35:43;;;;;;;13.95;7.10;;;5.20;99.90;;;;;;4983248;28;20144;-84
2024/01/30 02:38:09;;;;;;;14.13;8.50;;;5.20;99.90;;;;;;4977497;28;20488;-81
2024/01/30 02:40:35;;;;;;;9.68;7.35;;;5.30;99.90;;;;;;4965581;28;20513;-82
2024/01/30 02:43:03;;;;;;;11.80;7.38;;;5.30;99.90;;;;;;4985525;28;20268;-81
2024/01/30 02:45:28;;;;;;;9.40;6.70;;;5.30;99.90;;;;;;4988882;28;20085;-82
2024/01/30 02:47:54;;;;;;;10.60;7.05;;;5.40;99.90;;;;;;4952911;28;20536;-80
2024/01/30 02:50:19;;;;;;;11.52;7.60;;;5.40;99.90;;;;;;4954099;28;20453;-82
2024/01/30 02:52:45;;;;;;;8.25;5.82;;;5.40;99.90;;;;;;4970913;28;20053;-79
2024/01/30 02:55:11;;;;;;;12.73;8.45;;;5.40;99.90;;;;;;4955060;28;20139;-82
2024/01/30 02:57:37;;;;;;;13.05;7.97;;;5.40;99.90;;;;;;4964243;28;20413;-81
2024/01/30 03:00:05;;;;;;;7.75;6.30;;;5.40;99.90;;;;;;4974677;28;20045;-82
2024/01/30 03:02:31;;;;;;;10.10;7.57;;;5.40;99.90;;;;;;4970808;28;20101;-82
2024/01/30 03:04:56;;;;;;;10.30;7.32;;;5.40;99.90;;;;;;4990087;28;20038;-81
2024/01/30 03:07:22;;;;;;;8.50;7.53;;;5.40;99.90;;;;;;4965528;28;20544;-81
2024/01/30 03:09:48;;;;;;;9.68;7.03;;;5.40;99.90;;;;;;4981226;28;20504;-79
2024/01/30 03:12:13;;;;;;;10.10;6.85;;;5.40;99.90;;;;;;4971123;28;20050;-82
2024/01/30 03:14:39;;;;;;;9.80;7.50;;;5.40;99.90;;;;;;4989120;28;20050;-81
2024/01/30 03:17:05;;;;;;;11.00;6.90;;;5.30;99.90;;;;;;4988881;28;20117;-82
2024/01/30 03:19:30;;;;;;;10.80;8.15;;;5.30;99.90;;;;;;4981126;28;20047;-81
2024/01/30 03:21:56;;;;;;;8.40;6.55;;;5.30;99.90;;;;;;4982070;28;20039;-81
2024/01/30 03:24:21;;;;;;;12.45;7.15;;;5.30;99.90;;;;;;4989843;28;20386;-81
2024/01/30 03:26:47;;;;;;;12.55;7.38;;;5.30;99.90;;;;;;4971159;28;20038;-78
2024/01/30 03:29:13;;;;;;;12.50;6.50;;;5.30;99.90;;;;;;4967085;28;20066;-81
2024/01/30 03:31:39;;;;;;;9.05;5.90;;;5.20;99.90;;;;;;4977929;28;20531;-82
2024/01/30 03:34:05;;;;;;;14.57;7.40;;;5.20;99.90;;;;;;4977133;28;20042;-81
2024/01/30 03:36:32;;;;;;;9.43;6.07;;;5.20;99.90;;;;;;4969802;28;20045;-82
2024/01/30 03:38:58;;;;;;;9.15;5.93;;;5.20;99.90;;;;;;4953086;28;20131;-82
2024/01/30 03:41:24;;;;;;;11.30;7.28;;;5.20;99.90;;;;;;4970286;28;20071;-82
2024/01/30 03:43:50;;;;;;;6.88;5.43;;;5.20;99.90;;;;;;4962922;28;20404;-82
2024/01/30 03:46:15;;;;;;;9.98;5.75;;;5.20;99.90;;;;;;4985891;28;20050;-81
2024/01/30 03:48:41;;;;;;;7.32;6.18;;;5.20;99.90;;;;;;4970169;28;20137;-82
2024/01/30 03:51:07;;;;;;;10.40;5.07;;;5.20;99.90;;;;;;4963394;28;20049;-82
2024/01/30 03:53:32;;;;;;;14.38;6.45;;;5.30;99.90;;;;;;4987809;28;20134;-81
2024/01/30 03:55:58;;;;;;;11.20;6.68;;;5.30;99.90;;;;;;4988709;28;20045;-79
2024/01/30 03:58:24;;;;;;;12.88;7.00;;;5.30;99.90;;;;;;4979899;28;20061;-82
2024/01/30 04:00:49;;;;;;;9.88;5.75;;;5.30;99.90;;;;;;4946747;28;20152;-81
2024/01/30 04:03:15;;;;;;;8.40;6.45;;;5.40;99.90;;;;;;4969038;28;20113;-82
2024/01/30 04:05:41;;;;;;;6.65;5.55;;;5.40;99.90;;;;;;4953012;28;20501;-82
2024/01/30 04:08:07;;;;;;;9.50;6.30;;;5.40;99.90;;;;;;4987157;28;20034;-82
2024/01/30 04:10:33;;;;;;;7.35;6.13;;;5.40;99.90;;;;;;4970264;28;20385;-82
2024/01/30 04:12:59;;;;;;;15.95;6.10;;;5.40;99.90;;;;;;4969137;28;20035;-81
2024/01/30 04:15:25;;;;;;;7.53;5.93;;;5.50;99.90;;;;;;4959983;28;20673;-83
2024/01/30 04:17:51;;;;;;;13.30;7.03;;;5.50;99.90;;;;;;4987137;28;20122;-80
2024/01/30 04:20:17;;;;;;;10.15;6.85;;;5.50;99.90;;;;;;4987230;28;20121;-82
2024/01/30 04:22:46;;;;;;;12.38;5.28;;;5.60;99.90;;;;;;4971923;28;20090;-81
2024/01/30 04:25:14;;;;;;;10.68;5.85;;;5.60;99.90;;;;;;4970559;28;20082;-82
2024/01/30 04:27:40;;;;;;;9.35;5.47;;;5.60;99.90;;;;;;4972395;28;20130;-82
2024/01/30 04:30:06;;;;;;;11.40;6.45;;;5.60;99.90;;;;;;4964634;28;20046;-82
2024/01/30 04:32:32;;;;;;;7.00;5.88;;;5.60;99.90;;;;;;4968203;28;20497;-81
2024/01/30 04:34:58;;;;;;;12.20;7.13;;;5.60;99.90;;;;;;4969544;28;20043;-82
2024/01/30 04:37:24;;;;;;;7.82;5.90;;;5.60;99.90;;;;;;4969044;28;20050;-80
2024/01/30 04:39:50;;;;;;;6.57;5.95;;;5.60;99.90;;;;;;4971294;28;20113;-79
2024/01/30 04:42:16;;;;;;;8.50;5.97;;;5.70;99.90;;;;;;4978590;28;20042;-82
2024/01/30 04:44:42;;;;;;;13.27;6.32;;;5.60;99.90;;;;;;4987931;28;20117;-79
2024/01/30 04:47:10;;;;;;;8.40;5.88;;;5.70;99.90;;;;;;4984136;28;20121;-82
2024/01/30 04:49:36;;;;;;;12.00;6.43;;;5.70;99.90;;;;;;4973316;28;20046;-82
2024/01/30 04:52:02;;;;;;;10.43;6.22;;;5.70;99.90;;;;;;4987799;28;20053;-82
2024/01/30 04:54:27;;;;;;;10.02;6.47;;;5.60;99.90;;;;;;4953502;28;20051;-83
2024/01/30 04:56:53;;;;;;;10.82;6.95;;;5.70;99.90;;;;;;4976921;28;20050;-82
2024/01/30 04:59:18;;;;;;;8.68;6.35;;;5.70;99.90;;;;;;4969257;28;20050;-81
2024/01/30 05:01:44;;;;;;;15.52;7.90;;;5.70;99.90;;;;;;4964955;28;20046;-82
2024/01/30 05:04:10;;;;;;;14.13;7.35;;;5.70;99.90;;;;;;4954401;28;20053;-82
2024/01/30 05:06:35;;;;;;;8.73;5.65;;;5.70;99.90;;;;;;4962278;28;20136;-82
2024/01/30 05:09:01;;;;;;;11.05;5.80;;;5.70;99.90;;;;;;4975473;28;20129;-79
2024/01/30 05:11:26;;;;;;;8.70;7.22;;;5.70;99.90;;;;;;4954721;28;20110;-82
2024/01/30 05:13:52;;;;;;;12.45;6.57;;;5.70;99.90;;;;;;4981799;28;20064;-81
2024/01/30 05:16:18;;;;;;;7.65;6.18;;;5.80;99.90;;;;;;4969603;28;20090;-81
2024/01/30 05:18:43;;;;;;;8.75;4.90;;;5.70;99.90;;;;;;4951938;28;20135;-81
2024/01/30 05:21:10;;;;;;;10.05;5.45;;;5.80;99.90;;;;;;4968787;28;20035;-80
2024/01/30 05:23:36;;;;;;;9.18;6.40;;;5.80;99.90;;;;;;4976579;28;20038;-82
2024/01/30 05:26:02;;;;;;;8.95;6.00;;;5.80;99.90;;;;;;4953995;28;20038;-82
2024/01/30 05:28:30;;;;;;;10.05;5.88;;;5.80;99.90;;;;;;4953643;28;20086;-80
2024/01/30 05:30:56;;;;;;;10.27;4.78;;;5.80;99.90;;;;;;4987710;28;20043;-82
2024/01/30 05:33:22;;;;;;;17.08;6.63;;;5.80;99.90;;;;;;4969906;28;20050;-81
2024/01/30 05:35:48;;;;;;;10.68;4.32;;;5.80;99.90;;;;;;4984933;28;20043;-82
2024/01/30 05:38:15;;;;;;;10.05;5.90;;;5.80;99.90;;;;;;4946478;28;20042;-81
2024/01/30 05:40:41;;;;;;;8.80;5.53;;;5.80;99.90;;;;;;4950303;28;20057;-82
2024/01/30 05:43:07;;;;;;;10.68;5.88;;;5.80;99.90;;;;;;4976485;28;20518;-80
2024/01/30 05:45:35;;;;;;;9.95;6.93;;;5.80;99.90;;;;;;4986982;28;20508;-81
2024/01/30 05:48:00;;;;;;;8.57;6.55;;;5.80;99.90;;;;;;4986449;28;20052;-81
2024/01/30 05:50:26;;;;;;;11.07;5.75;;;5.80;99.90;;;;;;4969985;28;20141;-82
2024/01/30 05:52:52;;;;;;;13.80;5.88;;;5.80;99.90;;;;;;4968395;28;20057;-82
2024/01/30 05:55:18;;;;;;;9.48;5.78;;;5.80;99.90;;;;;;4980237;28;20043;-82
2024/01/30 05:57:43;;;;;;;8.68;5.82;;;5.90;99.90;;;;;;4979218;28;20038;-80
2024/01/30 06:00:09;;;;;;;10.10;6.40;;;5.90;99.90;;;;;;4969294;28;20074;-78
2024/01/30 06:02:35;;;;;;;10.55;5.90;;;5.90;99.90;;;;;;4958090;28;20038;-82
2024/01/30 06:05:00;;;;;;;10.60;5.82;;;5.90;99.90;;;;;;4977928;28;20050;-82
2024/01/30 06:07:26;;;;;;;9.10;5.85;;;5.90;99.90;;;;;;4966326;28;20078;-82
2024/01/30 06:09:51;;;;;;;13.23;5.50;;;5.90;99.90;;;;;;4966564;28;20043;-81
2024/01/30 06:12:17;;;;;;;11.43;5.82;;;5.90;99.90;;;;;;4955350;28;20046;-85
2024/01/30 06:14:43;;;;;;;11.88;6.57;;;5.90;99.90;;;;;;4959416;28;20066;-83
2024/01/30 06:17:09;;;;;;;14.32;6.35;;;5.90;99.90;;;;;;4946364;28;20042;-84
2024/01/30 06:19:35;;;;;;;7.88;4.78;;;5.90;99.90;;;;;;4984006;28;20050;-83
2024/01/30 06:22:00;;;;;;;7.13;4.85;;;6.00;99.90;;;;;;4965518;28;20089;-83
2024/01/30 06:24:27;;;;;;;5.95;4.57;;;6.00;99.90;;;;;;4980679;28;20141;-83
2024/01/30 06:26:53;;;;;;;11.00;6.13;;;6.00;99.90;;;;;;4971403;28;20049;-84
2024/01/30 06:29:18;;;;;;;6.22;4.78;;;6.00;99.90;;;;;;4977937;28;20125;-83
2024/01/30 06:31:44;;;;;;;9.90;5.57;;;6.00;99.90;;;;;;4969886;28;20046;-84
2024/01/30 06:34:11;;;;;;;12.18;5.97;;;6.00;99.90;;;;;;4964162;28;20046;-84
2024/01/30 06:36:37;;;;;;;10.98;6.75;;;6.00;99.90;;;;;;4972549;28;20074;-84
2024/01/30 06:39:03;;;;;;;6.82;4.75;;;6.00;99.90;;;;;;4968909;28;20085;-84
2024/01/30 06:41:29;;;;;;;8.05;4.82;;;6.00;99.90;;;;;;4952380;28;20441;-85
2024/01/30 06:43:55;;;;;;;10.07;5.78;;;6.00;99.90;;;;;;4952443;28;20047;-80
2024/01/30 06:46:21;;;;;;;7.65;4.55;;;6.00;99.90;;;;;;4961810;28;20515;-85
2024/01/30 06:48:46;;;;;;;13.88;5.57;;;6.00;99.90;;;;;;4982420;28;20552;-81
2024/01/30 06:51:12;;;;;;;11.50;5.75;;;6.10;99.90;;;;;;4978029;28;20039;-81
2024/01/30 06:53:38;;;;;;;7.38;5.40;;;6.10;99.90;;;;;;4980675;28;20046;-80
2024/01/30 06:56:04;;;;;;;6.47;4.88;;;6.10;99.90;;;;;;4977168;28;20407;-81
2024/01/30 06:58:30;;;;;;;11.80;7.00;;;6.10;99.90;;;;;;4983742;28;20046;-82
2024/01/30 07:00:56;;;;;;;8.98;5.95;;;6.10;99.90;;;;;;4977197;28;20255;-82
2024/01/30 07:03:22;;;;;;;10.93;7.20;;;6.10;99.90;;;;;;4966185;28;20153;-82
2024/01/30 07:05:47;;;;;;;9.02;6.13;;;6.20;99.90;;;;;;4950907;28;20130;-83
2024/01/30 07:08:13;;;;;;;9.07;5.30;;;6.10;99.90;;;;;;4954257;28;20097;-85
2024/01/30 07:10:39;;;;;;;9.70;7.15;;;6.10;99.90;;;;;;4975160;28;20705;-83
2024/01/30 07:13:05;;;;;;;9.70;6.47;;;6.10;99.90;;;;;;4979997;28;20058;-82
2024/01/30 07:15:31;;;;;;;10.27;5.60;;;6.10;99.90;;;;;;4973689;28;20067;-82
2024/01/30 07:17:57;;;;;;;11.98;5.65;;;6.10;99.90;;;;;;4962261;28;20055;-81
2024/01/30 07:20:22;;;;;;;8.85;5.65;;;6.10;99.90;;;;;;4970468;28;20097;-82
2024/01/30 07:22:48;;;;;;;10.68;5.18;;;6.20;99.90;;;;;;4962261;28;20053;-82
2024/01/30 07:25:14;;;;;;;9.07;5.35;;;6.20;99.90;;;;;;4960153;28;20149;-80
2024/01/30 07:27:39;;;;;;;10.63;6.20;;;6.20;99.90;;;;;;4982078;28;20463;-82
2024/01/30 07:30:06;;;;;;;10.68;5.00;;;6.30;99.90;;;;;;4989521;28;20069;-82
2024/01/30 07:32:31;;;;;;;7.32;5.53;;;6.30;99.90;;;;;;4983637;28;20101;-83
2024/01/30 07:34:57;;;;;;;14.68;6.78;;;6.30;99.90;;;;;;4983812;28;20519;-83
2024/01/30 07:37:23;;;;;;;11.95;7.03;;;6.40;99.90;;;;;;4979187;28;20043;-82
2024/01/30 07:39:48;;;;;;;13.25;5.30;;;6.40;99.90;;;;;;4971064;28;20054;-84
2024/01/30 07:42:14;;;;;;;8.55;4.78;;;6.40;99.90;;;;;;4985778;28;20042;-83
2024/01/30 07:44:39;;;;;;;8.05;5.38;;;6.40;99.90;;;;;;4967776;28;20392;-84
2024/01/30 07:47:05;;;;;;;6.88;5.32;;;6.40;99.90;;;;;;4952392;28;20038;-82
2024/01/30 07:49:32;;;;;;;9.77;6.53;;;6.50;99.90;;;;;;4958415;28;20046;-83
2024/01/30 07:51:57;;;;;;;7.07;5.82;;;6.50;99.90;;;;;;4956126;28;20050;-83
2024/01/30 07:54:23;;;;;;;8.70;5.07;;;6.50;99.90;;;;;;4977853;28;20050;-83
2024/01/30 07:56:49;;;;;;;15.77;5.95;;;6.50;99.90;;;;;;4988873;28;20046;-83
2024/01/30 07:59:15;;;;;;;10.48;5.65;;;6.50;99.90;;;;;;4979342;28;20563;-83
2024/01/30 08:01:41;;;;;;;8.35;5.32;;;6.60;99.90;;;;;;4968689;28;20038;-82
2024/01/30 08:04:06;;;;;;;9.98;4.75;;;6.60;99.90;;;;;;4984736;28;20100;-83
2024/01/30 08:06:32;;;;;;;10.00;6.35;;;6.60;99.90;;;;;;4972031;28;20440;-83
2024/01/30 08:08:59;;;;;;;9.38;6.00;;;6.70;99.90;;;;;;4987105;28;20046;-82
2024/01/30 08:11:26;;;;;;;9.02;6.65;;;6.70;99.90;;;;;;4960652;28;20039;-82
2024/01/30 08:13:54;;;;;;;10.48;6.50;;;6.80;99.90;;;;;;4978988;28;20069;-81
2024/01/30 08:16:19;;;;;;;9.88;6.10;;;6.80;99.90;;;;;;4981418;28;20031;-83
2024/01/30 08:18:45;;;;;;;7.45;5.25;;;6.90;99.90;;;;;;4962667;28;20066;-83
2024/01/30 08:21:11;;;;;;;10.23;6.63;;;7.00;99.90;;;;;;4969732;28;20564;-81
2024/01/30 08:23:39;;;;;;;11.18;5.60;;;7.00;99.90;;;;;;4980338;28;20485;-83
2024/01/30 08:26:05;;;;;;;15.18;6.13;;;7.10;99.90;;;;;;4979526;28;20053;-82
2024/01/30 08:28:30;;;;;;;9.73;5.82;;;7.10;99.90;;;;;;4983397;28;20043;-82
2024/01/30 08:30:56;;;;;;;12.98;7.03;;;7.20;99.90;;;;;;4950975;28;20058;-82
2024/01/30 08:33:21;;;;;;;9.18;6.55;;;7.30;99.90;;;;;;4972978;28;20049;-82
2024/01/30 08:35:47;;;;;;;11.40;4.85;;;7.30;99.90;;;;;;4988110;28;20073;-82
2024/01/30 08:38:13;;;;;;;10.18;6.00;;;7.40;99.90;;;;;;4982828;28;21289;-83
2024/01/30 08:40:38;;;;;;;11.52;7.13;;;7.40;99.90;;;;;;4969307;28;20050;-82
2024/01/30 08:43:04;;;;;;;10.13;4.93;;;7.50;99.90;;;;;;4969225;28;20110;-82
2024/01/30 08:45:30;;;;;;;9.10;5.18;;;7.60;99.90;;;;;;4967944;28;20700;-82
2024/01/30 08:47:56;;;;;;;8.27;4.63;;;7.70;99.90;;;;;;4975639;28;20489;-82
2024/01/30 08:50:22;;;;;;;10.30;6.03;;;7.70;99.90;;;;;;4977827;28;20049;-82
2024/01/30 08:52:48;;;;;;;10.43;5.63;;;7.80;99.90;;;;;;4988122;28;20050;-82
2024/01/30 08:55:14;;;;;;;10.43;5.78;;;7.80;99.90;;;;;;4974563;28;20477;-82
2024/01/30 08:57:39;;;;;;;9.02;5.38;;;7.90;99.90;;;;;;4950590;28;20051;-80
2024/01/30 09:00:06;;;;;;;9.77;5.75;;;7.80;99.90;;;;;;4954377;28;20058;-80
2024/01/30 09:02:33;;;;;;;13.48;6.07;;;8.00;99.90;;;;;;4965919;28;20047;-81
2024/01/30 09:04:59;;;;;;;6.88;4.50;;;8.00;99.90;;;;;;4950919;28;20054;-80
2024/01/30 09:07:25;;;;;;;11.63;6.93;;;8.10;99.90;;;;;;4950797;28;20058;-80
2024/01/30 09:09:50;;;;;;;11.98;6.72;;;8.10;99.90;;;;;;4981190;28;20038;-79
2024/01/30 09:12:16;;;;;;;10.98;4.63;;;8.20;99.90;;;;;;4987956;28;20144;-80
2024/01/30 09:14:42;;;;;;;17.83;6.20;;;8.30;99.90;;;;;;4968277;28;20661;-83
2024/01/30 09:17:08;;;;;;;16.38;6.53;;;8.30;99.90;;;;;;4969006;28;20046;-83
2024/01/30 09:19:33;;;;;;;11.75;6.80;;;8.30;99.90;;;;;;4986844;28;20046;-83
2024/01/30 09:21:59;;;;;;;15.13;6.93;;;8.30;99.90;;;;;;4968721;28;20132;-84
2024/01/30 09:24:26;;;;;;;13.43;5.70;;;8.40;99.90;;;;;;4972276;28;20510;-82
2024/01/30 09:26:52;;;;;;;8.68;5.57;;;8.40;99.90;;;;;;4981503;28;20046;-82
2024/01/30 09:29:17;;;;;;;13.57;5.82;;;8.40;99.90;;;;;;4970051;28;20520;-82
2024/01/30 09:31:45;;;;;;;11.20;6.47;;;8.50;99.90;;;;;;4963489;28;20533;-81
2024/01/30 09:34:10;;;;;;;12.80;6.70;;;8.50;99.90;;;;;;4963771;28;20425;-82
2024/01/30 09:36:36;;;;;;;9.93;5.88;;;8.50;99.90;;;;;;4986428;28;20042;-82
2024/01/30 09:39:02;;;;;;;12.52;7.47;;;8.50;99.90;;;;;;4950453;28;20536;-82
2024/01/30 09:41:27;;;;;;;14.85;6.25;;;8.50;99.90;;;;;;4960291;28;20042;-81
2024/01/30 09:43:54;;;;;;;13.93;6.82;;;8.50;99.90;;;;;;4968579;28;20034;-82
2024/01/30 09:46:22;;;;;;;11.57;5.13;;;8.50;99.90;;;;;;4985102;28;20045;-82
2024/01/30 09:48:49;;;;;;;11.45;5.50;;;8.60;99.90;;;;;;4968796;28;20046;-82
2024/01/30 09:51:16;;;;;;;10.73;6.22;;;8.60;99.90;;;;;;4966402;28;20342;-81
2024/01/30 09:53:44;;;;;;;8.45;4.53;;;8.60;99.90;;;;;;4972596;28;20081;-82
2024/01/30 09:56:09;;;;;;;10.57;5.28;;;8.60;99.90;;;;;;4962157;28;20042;-82
2024/01/30 09:58:35;;;;;;;8.93;5.10;;;8.60;99.90;;;;;;4986215;28;20448;-82
2024/01/30 10:01:00;;;;;;;14.98;6.38;;;8.70;99.90;;;;;;4968217;28;20047;-82
2024/01/30 10:03:26;;;;;;;7.35;4.50;;;8.70;99.90;;;;;;4982145;28;20515;-81
2024/01/30 10:05:53;;;;;;;9.57;5.43;;;8.70;99.90;;;;;;4951373;28;20093;-82
2024/01/30 10:08:21;;;;;;;10.38;5.28;;;8.70;99.90;;;;;;4938211;28;20073;-82
2024/01/30 10:10:49;;;;;;;8.95;5.18;;;8.70;99.90;;;;;;4964567;28;20047;-82
2024/01/30 10:13:15;;;;;;;8.68;4.45;;;8.70;99.90;;;;;;4965162;28;20094;-81
2024/01/30 10:15:41;;;;;;;7.32;4.18;;;8.70;99.90;;;;;;4952687;28;20057;-82
2024/01/30 10:18:10;;;;;;;4.80;3.60;;;8.70;99.90;;;;;;4950876;28;20046;-81
2024/01/30 10:20:36;;;;;;;9.65;5.40;;;8.70;99.90;;;;;;4966951;28;20046;-82
2024/01/30 10:23:02;;;;;;;9.68;4.20;;;8.70;99.90;;;;;;4936753;28;20433;-81
2024/01/30 10:25:27;;;;;;;7.78;4.20;;;8.70;99.90;;;;;;4960828;28;20441;-85
2024/01/30 10:27:56;;;;;;;7.93;3.22;;;8.70;99.90;;;;;;4979552;28;20043;-79
2024/01/30 10:30:22;;;;;;;6.53;4.20;;;8.60;99.90;;;;;;4970850;28;20093;-81
2024/01/30 10:32:48;;;;;;;4.28;3.22;;;8.70;99.90;;;;;;4962279;28;20058;-81
2024/01/30 10:35:14;;;;;;;7.28;4.32;;;8.60;99.90;;;;;;4969973;28;20527;-80
2024/01/30 10:37:40;;;;;;;5.15;2.85;;;8.60;99.90;;;;;;4961860;28;20046;-77
2024/01/30 10:40:07;;;;;;;8.20;3.17;;;8.60;99.90;;;;;;4979301;28;20049;-78
2024/01/30 10:42:36;;;;;;;12.50;3.47;;;8.60;99.90;;;;;;4973953;28;20050;-80
2024/01/30 10:45:28;;;;;;;9.07;2.85;;;8.60;99.90;;;;;;4976847;28;20112;-80
2024/01/30 10:47:58;;;;;;;14.00;4.07;;;8.60;99.90;;;;;;4975177;28;20104;-79
2024/01/30 10:50:24;;;;;;;6.13;2.75;;;8.60;99.90;;;;;;4966109;28;20031;-80
2024/01/30 10:52:50;;;;;;;4.80;1.52;;;8.60;99.90;;;;;;4951175;28;20061;-80
2024/01/30 10:55:18;;;;;;;5.78;1.45;;;8.50;99.90;;;;;;4988628;28;20042;-79
2024/01/30 10:57:43;;;;;;;3.53;1.52;;;8.60;99.90;;;;;;4979503;28;20050;-79
2024/01/30 11:00:11;;;;;;;2.75;1.52;;;8.60;99.90;;;;;;4962993;28;20049;-82
2024/01/30 11:02:43;;;;;;;1.40;1.15;;;8.50;99.90;;;;;;4959672;28;20045;-81
2024/01/30 11:05:09;;;;;;;1.00;0.88;;;8.60;99.90;;;;;;4970979;28;20050;-82
2024/01/30 11:07:35;;;;;;;2.22;0.60;;;8.50;99.90;;;;;;4972207;28;20042;-81
2024/01/30 11:10:04;;;;;;;1.27;0.75;;;8.60;99.90;;;;;;4989889;28;20428;-82
2024/01/30 11:12:35;;;;;;;2.75;1.20;;;8.60;99.90;;;;;;4972517;28;20056;-82
2024/01/30 11:15:05;;;;;;;1.92;1.38;;;8.60;99.90;;;;;;4975741;28;20086;-81
2024/01/30 11:18:00;;;;;;;0.85;0.85;;;8.50;99.90;;;;;;4958759;28;20204;-82
2024/01/30 11:20:32;;;;;;;4.78;1.40;;;8.60;99.90;;;;;;4937555;28;20047;-81
2024/01/30 11:22:58;;;;;;;2.35;0.90;;;8.60;99.90;;;;;;4957253;28;20113;-82
2024/01/30 11:25:25;;;;;;;2.17;1.45;;;8.60;99.90;;;;;;4960276;28;20046;-80
2024/01/30 11:27:53;;;;;;;1.15;0.60;;;8.60;99.90;;;;;;4961672;28;20489;-81
2024/01/30 11:30:27;;;;;;;1.70;0.90;;;8.60;99.90;;;;;;4964343;28;20057;-81
2024/01/30 11:33:08;;;;;;;1.00;0.80;;;8.60;99.90;;;;;;4959236;28;20141;-80
2024/01/30 11:35:41;;;;;;;1.05;0.52;;;8.60;99.90;;;;;;4941927;28;20043;-79
2024/01/30 11:38:13;;;;;;;1.48;0.80;;;8.60;99.90;;;;;;4955744;28;20431;-79
2024/01/30 11:40:40;;;;;;;1.00;0.75;;;8.60;99.90;;;;;;4964124;28;20042;-79
2024/01/30 11:43:08;;;;;;;3.90;0.88;;;8.60;99.90;;;;;;4959400;28;20050;-80
2024/01/30 11:45:34;;;;;;;2.55;1.00;;;8.60;99.90;;;;;;4972555;28;20046;-80
2024/01/30 11:48:03;;;;;;;0.82;0.77;;;8.50;99.90;;;;;;4981911;28;20049;-79
2024/01/30 11:50:32;;;;;;;1.20;0.68;;;8.50;99.90;;;;;;4970870;28;20493;-79
2024/01/30 11:53:00;;;;;;;1.38;0.98;;;8.50;99.90;;;;;;4982135;28;20043;-79
2024/01/30 11:55:25;;;;;;;3.72;0.98;;;8.50;99.90;;;;;;4957441;28;20170;-79
2024/01/30 11:57:54;;;;;;;2.78;1.10;;;8.50;99.90;;;;;;4978087;28;20086;-80
2024/01/30 12:00:20;;;;;;;1.92;1.20;;;8.50;99.90;;;;;;4984761;28;20078;-79
2024/01/30 12:02:57;;;;;;;1.60;1.10;;;8.50;99.90;;;;;;4966853;28;20098;-79
2024/01/30 12:05:24;;;;;;;2.35;0.65;;;8.60;99.90;;;;;;4961435;28;20107;-77
2024/01/30 12:07:49;;;;;;;3.05;1.00;;;8.60;99.90;;;;;;4957850;28;20049;-77
2024/01/30 12:10:15;;;;;;;2.30;0.73;;;8.60;99.90;;;;;;4988202;28;20038;-79
2024/01/30 12:12:49;;;;;;;3.05;1.05;;;8.60;99.90;;;;;;4963635;28;20046;-78
2024/01/30 12:15:15;;;;;;;5.93;1.33;;;8.60;99.90;;;;;;4951991;28;20074;-79
2024/01/30 12:17:41;;;;;;;2.20;0.70;;;8.60;99.90;;;;;;4955904;28;20549;-78
2024/01/30 12:20:15;;;;;;;2.47;1.52;;;8.60;99.90;;;;;;4965500;28;20136;-78
2024/01/30 12:22:46;;;;;;;1.05;0.60;;;8.60;99.90;;;;;;4953680;28;20051;-78
2024/01/30 12:25:20;;;;;;;1.50;0.52;;;8.60;99.90;;;;;;4960074;28;20046;-78
2024/01/30 12:27:51;;;;;;;1.15;0.77;;;8.60;99.90;;;;;;4959459;28;20511;-79
2024/01/30 12:30:19;;;;;;;1.65;0.57;;;8.60;99.90;;;;;;4956229;28;20094;-79
2024/01/30 12:32:47;;;;;;;2.83;1.65;;;8.60;99.90;;;;;;4968704;28;20053;-79
2024/01/30 12:35:18;;;;;;;2.53;0.45;;;8.60;99.90;;;;;;4988270;28;20054;-78
2024/01/30 12:37:45;;;;;;;2.58;1.10;;;8.60;99.90;;;;;;4961842;28;20058;-79
2024/01/30 12:40:15;;;;;;;1.23;1.00;;;8.60;99.90;;;;;;4955331;28;20344;-79
2024/01/30 12:42:48;;;;;;;4.85;1.63;;;8.60;99.90;;;;;;4968889;28;20134;-79
2024/01/30 12:45:14;;;;;;;1.10;1.00;;;8.60;99.90;;;;;;4951495;28;20054;-79
2024/01/30 12:47:41;;;;;;;1.83;1.33;;;8.60;99.90;;;;;;4951325;28;20054;-79
2024/01/30 12:50:07;;;;;;;1.95;1.05;;;8.60;99.90;;;;;;4951858;28;20043;-79